createdAt,value
2022-11-24T00:00:23.484Z,100259.23
2022-11-24T00:03:11.319Z,100256.31
2022-11-24T00:05:38.859Z,100256.79
2022-11-24T00:08:06.741Z,100257.48
2022-11-24T00:10:34.344Z,100253.64
2022-11-24T00:13:01.748Z,100252.48
2022-11-24T00:15:29.334Z,100257.63
2022-11-24T00:17:56.991Z,100265.98
2022-11-24T00:20:24.600Z,100269.39
2022-11-24T00:22:52.266Z,100269.55
2022-11-24T00:25:19.929Z,100270.07
2022-11-24T00:27:47.631Z,100268.06
2022-11-24T00:30:15.586Z,100265.87
2022-11-24T00:32:43.139Z,100265.57
2022-11-24T00:35:10.863Z,100261.35
2022-11-24T00:37:38.432Z,100261.52
2022-11-24T00:40:07.951Z,100267.35
2022-11-24T00:42:35.556Z,100273.06
2022-11-24T00:45:13.200Z,100286.91
2022-11-24T00:47:41.729Z,100289.55
2022-11-24T00:50:09.867Z,100291.14
2022-11-24T00:52:37.423Z,100292.50
2022-11-24T00:55:05.371Z,100294.25
2022-11-24T00:57:35.186Z,100288.08
2022-11-24T01:00:02.915Z,100294.20
2022-11-24T01:02:30.513Z,100291.98
2022-11-24T01:04:58.305Z,100296.84
2022-11-24T01:07:25.928Z,100305.52
2022-11-24T01:09:53.454Z,100306.33
2022-11-24T01:12:20.915Z,100296.59
2022-11-24T01:14:48.555Z,100284.80
2022-11-24T01:17:16.226Z,100275.11
2022-11-24T01:19:46.934Z,100277.14
2022-11-24T01:22:15.392Z,100281.05
2022-11-24T01:24:43.038Z,100281.56
2022-11-24T01:27:10.686Z,100278.73
2022-11-24T01:29:38.437Z,100274.26
2022-11-24T01:32:06.335Z,100271.52
2022-11-24T01:34:34.313Z,100266.70
2022-11-24T01:37:02.513Z,100267.34
2022-11-24T01:39:30.167Z,100269.33
2022-11-24T01:42:01.699Z,100277.14
2022-11-24T01:44:30.923Z,100276.45
2022-11-24T01:47:53.033Z,100277.24
2022-11-24T01:50:20.941Z,100274.65
2022-11-24T01:52:53.983Z,100273.01
2022-11-24T01:55:29.466Z,100274.15
2022-11-24T01:58:13.106Z,100276.13
2022-11-24T02:00:44.189Z,100279.24
2022-11-24T02:03:14.201Z,100279.86
2022-11-24T02:06:00.524Z,100277.32
2022-11-24T02:08:51.982Z,100292.63
2022-11-24T02:11:21.392Z,100299.44
2022-11-24T02:13:50.384Z,100298.48
2022-11-24T02:16:18.029Z,100292.98
2022-11-24T02:18:45.945Z,100294.83
2022-11-24T02:21:15.728Z,100295.20
2022-11-24T02:24:13.687Z,100297.80
2022-11-24T02:26:44.928Z,100297.54
2022-11-24T02:29:13.723Z,100292.52
2022-11-24T02:32:09.240Z,100287.34
2022-11-24T02:34:36.943Z,100285.13
2022-11-24T02:37:04.498Z,100286.91
2022-11-24T02:39:32.087Z,100291.54
2022-11-24T02:42:05.951Z,100295.55
2022-11-24T02:44:48.163Z,100294.29
2022-11-24T02:47:15.906Z,100297.30
2022-11-24T02:49:43.532Z,100304.13
2022-11-24T02:52:10.912Z,100299.39
2022-11-24T02:54:38.624Z,100295.00
2022-11-24T02:57:06.536Z,100295.13
2022-11-24T02:59:34.470Z,100299.39
2022-11-24T03:02:02.531Z,100306.20
2022-11-24T03:04:30.372Z,100310.86
2022-11-24T03:06:58.016Z,100312.48
2022-11-24T03:09:25.872Z,100314.60
2022-11-24T03:11:53.951Z,100312.72
2022-11-24T03:14:21.844Z,100304.67
2022-11-24T03:16:50.455Z,100306.23
2022-11-24T03:19:18.045Z,100310.37
2022-11-24T03:21:46.164Z,100306.76
2022-11-24T03:24:14.073Z,100313.23
2022-11-24T03:26:42.131Z,100318.59
2022-11-24T03:29:09.633Z,100318.07
2022-11-24T03:31:37.511Z,100319.64
2022-11-24T03:34:05.232Z,100316.17
2022-11-24T03:36:32.900Z,100312.93
2022-11-24T03:39:00.678Z,100310.29
2022-11-24T03:41:28.982Z,100308.73
2022-11-24T03:44:00.288Z,100313.77
2022-11-24T03:46:27.846Z,100316.71
2022-11-24T03:48:55.620Z,100324.62
2022-11-24T03:51:23.329Z,100330.42
2022-11-24T03:53:51.021Z,100340.35
2022-11-24T03:56:18.509Z,100336.72
2022-11-24T03:58:46.447Z,100334.41
2022-11-24T04:04:52.543Z,100342.68
2022-11-24T04:07:21.943Z,100348.21
2022-11-24T04:09:51.031Z,100355.56
2022-11-24T04:12:38.646Z,100355.91
2022-11-24T04:15:08.093Z,100357.45
2022-11-24T04:17:37.203Z,100355.31
2022-11-24T04:20:07.833Z,100353.30
2022-11-24T04:22:37.132Z,100353.10
2022-11-24T04:25:07.760Z,100351.95
2022-11-24T04:27:37.862Z,100356.85
2022-11-24T04:30:08.502Z,100330.76
2022-11-24T04:32:38.450Z,100357.98
2022-11-24T04:35:08.114Z,100356.87
2022-11-24T04:37:38.974Z,100353.46
2022-11-24T04:40:12.807Z,100355.63
2022-11-24T04:42:42.193Z,100359.55
2022-11-24T04:45:13.217Z,100368.03
2022-11-24T04:47:43.261Z,100368.04
2022-11-24T04:50:15.789Z,100369.85
2022-11-24T04:52:45.388Z,100372.52
2022-11-24T04:55:14.832Z,100375.36
2022-11-24T04:57:44.907Z,100374.41
2022-11-24T05:00:15.762Z,100376.27
2022-11-24T05:02:44.864Z,100378.58
2022-11-24T05:05:14.667Z,100384.16
2022-11-24T05:07:45.340Z,100387.57
2022-11-24T05:10:33.353Z,100393.05
2022-11-24T05:13:06.852Z,100398.45
2022-11-24T05:15:40.090Z,100394.42
2022-11-24T05:18:25.914Z,100399.02
2022-11-24T05:21:16.012Z,100401.35
2022-11-24T05:23:45.163Z,100402.84
2022-11-24T05:26:53.015Z,100407.23
2022-11-24T05:29:23.526Z,100409.42
2022-11-24T05:32:07.864Z,100411.00
2022-11-24T05:34:39.734Z,100417.34
2022-11-24T05:37:09.783Z,100415.55
2022-11-24T05:39:40.028Z,100412.34
2022-11-24T05:42:28.993Z,100415.48
2022-11-24T05:45:24.480Z,100416.34
2022-11-24T05:47:54.602Z,100423.39
2022-11-24T05:50:25.193Z,100424.23
2022-11-24T05:52:54.468Z,100429.70
2022-11-24T05:55:46.337Z,100429.37
2022-11-24T05:58:17.371Z,100430.23
2022-11-24T06:00:49.701Z,100433.20
2022-11-24T06:03:19.186Z,100438.35
2022-11-24T06:05:50.291Z,100440.92
2022-11-24T06:08:26.824Z,100446.77
2022-11-24T06:11:34.943Z,100455.32
2022-11-24T06:14:10.782Z,100466.25
2022-11-24T06:16:46.997Z,100466.75
2022-11-24T06:19:23.908Z,100469.27
2022-11-24T06:21:59.640Z,100472.27
2022-11-24T06:24:28.828Z,100471.73
2022-11-24T06:27:10.383Z,100474.88
2022-11-24T06:29:51.249Z,100475.68
2022-11-24T06:32:20.373Z,100474.77
2022-11-24T06:34:52.237Z,100474.92
2022-11-24T06:37:22.216Z,100481.10
2022-11-24T06:40:31.038Z,100484.95
2022-11-24T06:43:00.574Z,100489.94
2022-11-24T06:45:30.778Z,100489.71
2022-11-24T06:48:00.109Z,100489.30
2022-11-24T06:50:33.827Z,100492.54
2022-11-24T06:53:03.903Z,100493.61
2022-11-24T06:55:33.548Z,100494.62
2022-11-24T06:58:43.067Z,100493.53
2022-11-24T07:01:23.098Z,100495.64
2022-11-24T07:03:54.219Z,100497.27
2022-11-24T07:06:27.563Z,100498.08
2022-11-24T07:08:57.630Z,100500.15
2022-11-24T07:11:27.795Z,100500.20
2022-11-24T07:14:16.007Z,100502.21
2022-11-24T07:16:47.032Z,100500.11
2022-11-24T07:19:25.211Z,100503.73
2022-11-24T07:21:55.891Z,100494.95
2022-11-24T07:24:26.871Z,100500.73
2022-11-24T07:41:45.890Z,100513.11
2022-11-24T07:44:19.827Z,100513.56
2022-11-24T07:47:07.915Z,100512.63
2022-11-24T07:49:38.719Z,100515.08
2022-11-24T07:52:11.166Z,100519.48
2022-11-24T08:12:46.572Z,100549.73
2022-11-24T08:15:22.628Z,100549.35
2022-11-24T08:18:32.909Z,100544.45
2022-11-24T08:21:03.641Z,100540.85
2022-11-24T08:27:08.723Z,100552.38
2022-11-24T08:29:46.775Z,100552.56
2022-11-24T08:32:22.059Z,100551.85
2022-11-24T08:35:13.486Z,100554.59
2022-11-24T08:50:37.932Z,100559.28
2022-11-24T08:53:08.295Z,100558.02
2022-11-24T08:59:14.960Z,100558.64
2022-11-24T09:05:43.278Z,100556.74
2022-11-24T09:15:14.151Z,100563.98
2022-11-24T09:17:44.195Z,100566.84
2022-11-24T09:24:37.078Z,100561.33
2022-11-24T09:27:17.758Z,100563.11
2022-11-24T09:30:50.582Z,100569.55
2022-11-24T09:33:20.137Z,100573.58
2022-11-24T09:35:54.329Z,100571.32
2022-11-24T09:38:54.251Z,100570.29
2022-11-24T09:46:05.572Z,100572.66
2022-11-24T09:55:45.464Z,100576.61
2022-11-24T09:59:00.842Z,100577.29
2022-11-24T10:04:49.978Z,100571.89
2022-11-24T10:07:35.098Z,100571.17
2022-11-24T10:10:21.168Z,100569.64
2022-11-24T10:13:23.411Z,100566.63
2022-11-24T10:19:22.815Z,100578.55
2022-11-24T10:22:21.857Z,100584.50
2022-11-24T10:25:14.332Z,100578.48
2022-11-24T10:29:06.674Z,100578.21
2022-11-24T10:31:43.932Z,100579.81
2022-11-24T10:47:47.417Z,100577.64
2022-11-24T10:54:17.413Z,100575.85
2022-11-24T10:56:59.025Z,100575.83
2022-11-24T10:59:45.786Z,100574.70
2022-11-24T11:02:40.331Z,100569.52
2022-11-24T11:05:48.269Z,100566.63
2022-11-24T11:12:09.971Z,100566.98
2022-11-24T11:15:38.829Z,100560.20
2022-11-24T11:18:20.660Z,100557.61
2022-11-24T11:23:59.518Z,100560.07
2022-11-24T11:26:43.959Z,100560.58
2022-11-24T11:38:43.876Z,100555.58
2022-11-24T11:42:25.705Z,100556.38
2022-11-24T11:45:27.206Z,100562.13
2022-11-24T11:48:21.744Z,100563.37
2022-11-24T11:51:52.404Z,100569.77
2022-11-24T11:54:44.774Z,100575.52
2022-11-24T12:05:12.849Z,100578.17
2022-11-24T12:09:18.613Z,100578.27
2022-11-24T12:15:39.854Z,100584.20
2022-11-24T12:39:36.813Z,100585.69
2022-11-24T12:49:37.879Z,100587.73
2022-11-24T12:55:42.101Z,100588.74
2022-11-24T12:58:57.184Z,100587.58
2022-11-24T13:05:31.617Z,100591.69
2022-11-24T13:08:59.619Z,100589.66
2022-11-24T13:11:52.660Z,100584.23
2022-11-24T13:18:49.173Z,100582.46
2022-11-24T13:21:41.928Z,100581.38
2022-11-24T13:24:24.085Z,100583.24
2022-11-24T13:30:45.575Z,100584.69
2022-11-24T13:33:17.121Z,100586.63
2022-11-24T14:01:52.722Z,100600.62
2022-11-24T14:04:40.342Z,100604.92
2022-11-24T14:07:57.019Z,100611.86
2022-11-24T14:13:49.035Z,100619.33
2022-11-24T14:16:24.617Z,100623.73
2022-11-24T14:22:33.471Z,100622.19
2022-11-24T14:28:33.043Z,100629.96
2022-11-24T14:31:35.359Z,100633.45
2022-11-24T14:40:57.685Z,100641.11
2022-11-24T14:43:52.197Z,100644.64
2022-11-24T14:46:22.392Z,100649.52
2022-11-24T14:48:54.806Z,100649.52
2022-11-24T14:51:27.575Z,100645.34
2022-11-24T14:54:19.510Z,100653.39
2022-11-24T14:57:24.715Z,100655.59
2022-11-24T15:03:36.725Z,100659.67
2022-11-24T15:30:39.493Z,100709.51
2022-11-24T15:33:17.060Z,100705.88
2022-11-24T15:36:15.713Z,100712.91
2022-11-24T15:39:04.180Z,100717.38
2022-11-24T16:15:57.234Z,100730.90
2022-11-24T16:18:26.478Z,100734.14
2022-11-24T16:24:21.814Z,100731.89
2022-11-24T16:30:16.407Z,100727.06
2022-11-24T16:33:55.057Z,100718.83
2022-11-24T16:39:49.953Z,100720.75
2022-11-24T16:42:23.027Z,100726.18
2022-11-24T16:44:52.553Z,100728.84
2022-11-24T16:50:58.109Z,100750.23
2022-11-24T16:53:31.855Z,100757.23
2022-11-24T16:57:01.149Z,100759.39
2022-11-24T16:59:37.539Z,100766.17
2022-11-24T17:02:36.745Z,100766.19
2022-11-24T17:05:09.416Z,100760.78
2022-11-24T17:11:28.586Z,100759.89
2022-11-24T17:17:19.973Z,100770.06
2022-11-24T17:19:49.074Z,100773.38
2022-11-24T17:23:15.154Z,100776.27
2022-11-24T17:25:45.234Z,100778.89
2022-11-24T17:32:46.156Z,100778.40
2022-11-24T17:35:18.577Z,100781.35
2022-11-24T17:37:49.742Z,100785.78
2022-11-24T18:00:57.081Z,100795.16
2022-11-24T18:03:31.466Z,100799.07
2022-11-24T18:09:27.282Z,100805.86
2022-11-24T18:15:55.848Z,100804.95
2022-11-24T18:18:40.288Z,100811.39
2022-11-24T18:22:14.569Z,100813.98
2022-11-24T18:24:54.485Z,100816.30
2022-11-24T18:34:48.498Z,100809.79
2022-11-24T18:37:22.463Z,100820.55
2022-11-24T18:39:53.460Z,100828.30
2022-11-24T18:42:29.802Z,100833.07
2022-11-24T18:48:31.185Z,100825.77
2022-11-24T18:51:34.173Z,100831.51
2022-11-24T18:54:06.343Z,100838.65
2022-11-24T18:56:35.082Z,100832.77
2022-11-24T18:59:03.180Z,100832.08
2022-11-24T19:01:39.720Z,100836.35
2022-11-24T19:04:13.769Z,100840.19
2022-11-24T19:06:52.549Z,100840.02
2022-11-24T19:09:29.604Z,100835.98
2022-11-24T19:12:28.573Z,100839.05
2022-11-24T19:14:57.751Z,100840.94
2022-11-24T19:17:30.005Z,100837.09
2022-11-24T19:20:10.573Z,100839.44
2022-11-24T19:22:43.303Z,100838.34
2022-11-24T19:25:57.631Z,100836.96
2022-11-24T19:28:28.687Z,100839.00
2022-11-24T19:31:04.409Z,100840.98
2022-11-24T19:33:36.527Z,100843.81
2022-11-24T19:36:09.135Z,100848.42
2022-11-24T19:38:40.739Z,100852.52
2022-11-24T19:41:15.140Z,100855.61
2022-11-24T19:43:43.398Z,100856.82
2022-11-24T19:46:14.869Z,100859.77
2022-11-24T19:52:04.862Z,100861.27
2022-11-24T19:54:34.543Z,100858.78
2022-11-24T19:57:04.704Z,100858.92
2022-11-24T19:59:32.484Z,100856.59
2022-11-24T20:02:02.337Z,100864.30
2022-11-24T20:04:32.361Z,100870.60
2022-11-24T20:07:00.442Z,100871.73
2022-11-24T20:09:32.840Z,100868.67
2022-11-24T20:12:04.263Z,100862.77
2022-11-24T20:14:33.667Z,100861.70
2022-11-24T20:17:06.379Z,100861.75
2022-11-24T20:22:57.455Z,100860.65
2022-11-24T20:25:25.431Z,100864.39
2022-11-24T20:27:55.979Z,100871.59
2022-11-24T20:30:25.841Z,100874.44
2022-11-24T20:32:56.302Z,100879.27
2022-11-24T20:35:24.424Z,100880.09
2022-11-24T20:37:53.466Z,100880.90
2022-11-24T20:40:21.298Z,100882.55
2022-11-24T20:42:49.791Z,100885.37
2022-11-24T20:45:21.973Z,100885.42
2022-11-24T20:50:52.336Z,100886.83
2022-11-24T20:53:22.284Z,100888.62
2022-11-24T20:55:52.294Z,100887.55
2022-11-24T20:58:21.382Z,100889.40
2022-11-24T21:01:01.547Z,100892.99
2022-11-24T21:03:31.135Z,100893.98
2022-11-24T21:06:00.523Z,100897.31
2022-11-24T21:08:34.077Z,100903.19
2022-11-24T21:11:06.130Z,100906.80
2022-11-24T21:13:38.131Z,100906.94
2022-11-24T21:16:19.068Z,100911.27
2022-11-24T21:18:53.232Z,100908.88
2022-11-24T21:21:24.404Z,100903.48
2022-11-24T21:23:53.314Z,100909.89
2022-11-24T21:26:22.457Z,100910.82
2022-11-24T21:28:51.380Z,100911.59
2022-11-24T21:31:21.961Z,100909.33
2022-11-24T21:33:54.932Z,100907.63
2022-11-24T21:36:25.970Z,100906.13
2022-11-24T21:38:57.679Z,100907.86
2022-11-24T21:41:29.127Z,100911.30
2022-11-24T21:43:58.344Z,100912.47
2022-11-24T21:46:29.416Z,100914.24
2022-11-24T21:48:58.279Z,100912.48
2022-11-24T21:51:28.750Z,100914.27
2022-11-24T21:53:58.883Z,100911.83
2022-11-24T21:56:28.958Z,100908.84
2022-11-24T21:58:58.881Z,100908.10
2022-11-24T22:01:29.051Z,100910.78
2022-11-24T22:03:58.229Z,100909.86
2022-11-24T22:06:27.634Z,100914.95
2022-11-24T22:08:56.764Z,100917.54
2022-11-24T22:11:29.140Z,100918.88
2022-11-24T22:13:59.394Z,100920.05
2022-11-24T22:16:29.254Z,100927.59
2022-11-24T22:19:01.069Z,100924.85
2022-11-24T22:21:37.722Z,100925.16
2022-11-24T22:24:07.195Z,100924.17
2022-11-24T22:26:36.278Z,100926.65
2022-11-24T22:29:12.678Z,100930.71
2022-11-24T22:31:42.231Z,100928.83
2022-11-24T22:34:11.445Z,100924.83
2022-11-24T22:36:43.493Z,100924.33
2022-11-24T22:39:13.405Z,100922.83
2022-11-24T22:41:42.258Z,100924.73
2022-11-24T22:44:11.222Z,100927.26
2022-11-24T22:46:39.986Z,100928.98
2022-11-24T22:49:19.552Z,100930.17
2022-11-24T22:51:57.404Z,100930.59
2022-11-24T22:54:26.517Z,100923.81
2022-11-24T22:56:56.331Z,100933.13
2022-11-24T22:59:25.330Z,100927.83
2022-11-24T23:06:53.560Z,100923.16
2022-11-24T23:09:21.001Z,100920.94
2022-11-24T23:11:49.729Z,100927.05
2022-11-24T23:14:17.278Z,100926.02
2022-11-24T23:16:46.662Z,100933.09
2022-11-24T23:19:14.632Z,100935.80
2022-11-24T23:21:42.124Z,100933.48
2022-11-24T23:24:10.315Z,100935.42
2022-11-24T23:26:41.429Z,100934.98
2022-11-24T23:29:10.992Z,100934.58
2022-11-24T23:31:41.253Z,100935.64
2022-11-24T23:34:09.630Z,100933.15
2022-11-24T23:36:38.107Z,100936.34
2022-11-24T23:39:13.660Z,100940.02
2022-11-24T23:41:45.501Z,100938.70
2022-11-24T23:44:13.008Z,100941.56
2022-11-24T23:46:40.813Z,100946.22
2022-11-24T23:49:08.612Z,100949.66
2022-11-24T23:51:36.333Z,100952.45
2022-11-24T23:54:08.294Z,100952.81
2022-11-24T23:56:35.740Z,100954.98
2022-11-24T23:59:04.466Z,100956.98
